sensor_id;sensor_type;location;lat;lon;timestamp;pressure;altitude;pressure_sealevel;temperature;humidity
48244;BME280;34053;51.088;6.572;2022-07-06T00:00:37;101935.78;;;18.62;42.45
48244;BME280;34053;51.088;6.572;2022-07-06T00:03:08;101937.75;;;18.56;43.16
48244;BME280;34053;51.088;6.572;2022-07-06T00:05:41;101930.84;;;18.52;43.41
48244;BME280;34053;51.088;6.572;2022-07-06T00:08:12;101938.53;;;18.38;43.57
48244;BME280;34053;51.088;6.572;2022-07-06T00:10:42;101930.50;;;18.39;42.76
48244;BME280;34053;51.088;6.572;2022-07-06T00:13:16;101935.00;;;18.37;42.79
48244;BME280;34053;51.088;6.572;2022-07-06T00:15:47;101931.53;;;18.35;43.20
48244;BME280;34053;51.088;6.572;2022-07-06T00:18:17;101933.25;;;18.36;42.70
48244;BME280;34053;51.088;6.572;2022-07-06T00:20:48;101931.13;;;18.24;42.99
48244;BME280;34053;51.088;6.572;2022-07-06T00:23:19;101939.09;;;18.24;43.65
48244;BME280;34053;51.088;6.572;2022-07-06T00:25:52;101932.41;;;18.14;43.98
48244;BME280;34053;51.088;6.572;2022-07-06T00:28:23;101926.28;;;18.12;43.85
48244;BME280;34053;51.088;6.572;2022-07-06T00:30:54;101931.59;;;18.12;42.76
48244;BME280;34053;51.088;6.572;2022-07-06T00:33:24;101932.84;;;18.03;44.34
48244;BME280;34053;51.088;6.572;2022-07-06T00:35:55;101925.72;;;18.03;43.46
48244;BME280;34053;51.088;6.572;2022-07-06T00:38:26;101921.56;;;17.96;43.28
48244;BME280;34053;51.088;6.572;2022-07-06T00:40:56;101919.88;;;17.93;43.43
48244;BME280;34053;51.088;6.572;2022-07-06T00:43:29;101927.03;;;17.91;43.39
48244;BME280;34053;51.088;6.572;2022-07-06T00:46:22;101929.81;;;17.88;43.01
48244;BME280;34053;51.088;6.572;2022-07-06T00:48:54;101936.97;;;17.86;43.07
48244;BME280;34053;51.088;6.572;2022-07-06T00:51:28;101937.78;;;17.88;43.61
48244;BME280;34053;51.088;6.572;2022-07-06T00:54:04;101938.06;;;17.81;44.00
48244;BME280;34053;51.088;6.572;2022-07-06T00:56:35;101943.56;;;17.76;43.21
48244;BME280;34053;51.088;6.572;2022-07-06T00:59:06;101946.31;;;17.73;43.16
48244;BME280;34053;51.088;6.572;2022-07-06T01:01:36;101941.97;;;17.72;42.90
48244;BME280;34053;51.088;6.572;2022-07-06T01:04:10;101943.78;;;17.70;43.05
48244;BME280;34053;51.088;6.572;2022-07-06T01:06:40;101948.28;;;17.68;43.13
48244;BME280;34053;51.088;6.572;2022-07-06T01:09:11;101944.78;;;17.67;43.22
48244;BME280;34053;51.088;6.572;2022-07-06T01:11:41;101952.00;;;17.64;43.24
48244;BME280;34053;51.088;6.572;2022-07-06T01:14:14;101942.34;;;17.61;43.15
48244;BME280;34053;51.088;6.572;2022-07-06T01:16:45;101945.16;;;17.56;43.34
48244;BME280;34053;51.088;6.572;2022-07-06T01:19:16;101944.22;;;17.57;43.01
48244;BME280;34053;51.088;6.572;2022-07-06T01:21:47;101944.38;;;17.54;43.27
48244;BME280;34053;51.088;6.572;2022-07-06T01:24:17;101947.03;;;17.54;43.44
48244;BME280;34053;51.088;6.572;2022-07-06T01:26:48;101947.13;;;17.51;43.91
48244;BME280;34053;51.088;6.572;2022-07-06T01:29:19;101950.69;;;17.50;43.37
48244;BME280;34053;51.088;6.572;2022-07-06T01:31:50;101948.97;;;17.49;43.22
48244;BME280;34053;51.088;6.572;2022-07-06T01:34:20;101946.38;;;17.48;43.87
48244;BME280;34053;51.088;6.572;2022-07-06T01:36:51;101948.22;;;17.45;43.36
48244;BME280;34053;51.088;6.572;2022-07-06T01:39:21;101944.69;;;17.45;44.11
48244;BME280;34053;51.088;6.572;2022-07-06T01:41:52;101940.41;;;17.41;43.70
48244;BME280;34053;51.088;6.572;2022-07-06T01:44:23;101945.72;;;17.41;43.41
48244;BME280;34053;51.088;6.572;2022-07-06T01:46:53;101936.16;;;17.37;44.35
48244;BME280;34053;51.088;6.572;2022-07-06T01:49:24;101939.78;;;17.34;43.59
48244;BME280;34053;51.088;6.572;2022-07-06T01:51:54;101938.16;;;17.30;43.59
48244;BME280;34053;51.088;6.572;2022-07-06T01:54:25;101932.97;;;17.27;43.72
48244;BME280;34053;51.088;6.572;2022-07-06T01:56:55;101933.94;;;17.24;43.83
48244;BME280;34053;51.088;6.572;2022-07-06T01:59:26;101931.34;;;17.23;43.74
48244;BME280;34053;51.088;6.572;2022-07-06T02:01:56;101930.59;;;17.19;43.57
48244;BME280;34053;51.088;6.572;2022-07-06T02:04:27;101939.56;;;17.15;43.71
48244;BME280;34053;51.088;6.572;2022-07-06T02:06:58;101934.25;;;17.15;43.84
48244;BME280;34053;51.088;6.572;2022-07-06T02:09:28;101927.34;;;17.11;43.68
48244;BME280;34053;51.088;6.572;2022-07-06T02:11:59;101937.13;;;17.09;43.82
48244;BME280;34053;51.088;6.572;2022-07-06T02:14:29;101925.72;;;17.07;43.88
48244;BME280;34053;51.088;6.572;2022-07-06T02:17:00;101934.59;;;17.06;43.81
48244;BME280;34053;51.088;6.572;2022-07-06T02:19:30;101930.25;;;17.03;44.27
48244;BME280;34053;51.088;6.572;2022-07-06T02:22:01;101929.50;;;16.99;44.09
48244;BME280;34053;51.088;6.572;2022-07-06T02:24:31;101933.06;;;16.98;43.74
48244;BME280;34053;51.088;6.572;2022-07-06T02:27:02;101936.66;;;16.97;43.85
48244;BME280;34053;51.088;6.572;2022-07-06T02:29:33;101931.44;;;16.94;43.90
48244;BME280;34053;51.088;6.572;2022-07-06T02:32:03;101930.72;;;16.89;44.24
48244;BME280;34053;51.088;6.572;2022-07-06T02:34:34;101921.88;;;16.89;44.13
48244;BME280;34053;51.088;6.572;2022-07-06T02:37:05;101924.59;;;16.87;44.17
48244;BME280;34053;51.088;6.572;2022-07-06T02:39:39;101916.72;;;16.86;44.35
48244;BME280;34053;51.088;6.572;2022-07-06T02:42:09;101923.84;;;16.83;44.41
48244;BME280;34053;51.088;6.572;2022-07-06T02:44:42;101922.97;;;16.83;44.24
48244;BME280;34053;51.088;6.572;2022-07-06T02:47:13;101927.41;;;16.82;44.24
48244;BME280;34053;51.088;6.572;2022-07-06T02:49:43;101928.38;;;16.80;44.53
48244;BME280;34053;51.088;6.572;2022-07-06T02:56:12;101935.66;;;16.73;44.46
48244;BME280;34053;51.088;6.572;2022-07-06T02:58:42;101936.59;;;16.72;44.02
48244;BME280;34053;51.088;6.572;2022-07-06T03:01:13;101942.91;;;16.68;44.71
48244;BME280;34053;51.088;6.572;2022-07-06T03:03:43;101943.00;;;16.65;44.65
48244;BME280;34053;51.088;6.572;2022-07-06T03:06:14;101935.13;;;16.63;44.79
48244;BME280;34053;51.088;6.572;2022-07-06T03:08:45;101943.09;;;16.62;44.95
48244;BME280;34053;51.088;6.572;2022-07-06T03:11:15;101945.88;;;16.59;44.81
48244;BME280;34053;51.088;6.572;2022-07-06T03:13:46;101942.41;;;16.57;44.51
48244;BME280;34053;51.088;6.572;2022-07-06T03:16:17;101941.63;;;16.53;44.89
48244;BME280;34053;51.088;6.572;2022-07-06T03:18:50;101946.94;;;16.53;44.90
48244;BME280;34053;51.088;6.572;2022-07-06T03:21:20;101945.25;;;16.50;44.52
48244;BME280;34053;51.088;6.572;2022-07-06T03:23:51;101948.00;;;16.47;45.10
48244;BME280;34053;51.088;6.572;2022-07-06T03:26:22;101948.97;;;16.45;44.95
48244;BME280;34053;51.088;6.572;2022-07-06T03:28:53;101952.53;;;16.44;45.04
48244;BME280;34053;51.088;6.572;2022-07-06T03:31:23;101949.03;;;16.42;45.13
48244;BME280;34053;51.088;6.572;2022-07-06T03:33:54;101943.88;;;16.39;44.89
48244;BME280;34053;51.088;6.572;2022-07-06T03:36:24;101951.91;;;16.35;44.99
48244;BME280;34053;51.088;6.572;2022-07-06T03:38:55;101946.59;;;16.35;45.09
48244;BME280;34053;51.088;6.572;2022-07-06T03:41:28;101949.34;;;16.32;45.17
48244;BME280;34053;51.088;6.572;2022-07-06T03:43:58;101951.19;;;16.30;44.89
48244;BME280;34053;51.088;6.572;2022-07-06T03:46:29;101951.28;;;16.27;45.19
48244;BME280;34053;51.088;6.572;2022-07-06T03:49:00;101953.09;;;16.25;45.01
48244;BME280;34053;51.088;6.572;2022-07-06T03:51:33;101952.31;;;16.23;45.60
48244;BME280;34053;51.088;6.572;2022-07-06T03:54:04;101961.16;;;16.22;45.69
48244;BME280;34053;51.088;6.572;2022-07-06T03:56:34;101954.22;;;16.18;45.81
48244;BME280;34053;51.088;6.572;2022-07-06T03:59:05;101959.50;;;16.18;46.09
48244;BME280;34053;51.088;6.572;2022-07-06T04:01:35;101958.66;;;16.17;45.38
48244;BME280;34053;51.088;6.572;2022-07-06T04:04:09;101957.81;;;16.15;45.57
48244;BME280;34053;51.088;6.572;2022-07-06T04:06:39;101961.50;;;16.11;45.55
48244;BME280;34053;51.088;6.572;2022-07-06T04:09:10;101961.44;;;16.13;45.49
48244;BME280;34053;51.088;6.572;2022-07-06T04:11:41;101967.66;;;16.12;45.94
48244;BME280;34053;51.088;6.572;2022-07-06T04:14:11;101960.66;;;16.09;46.07
48244;BME280;34053;51.088;6.572;2022-07-06T04:16:42;101963.41;;;16.06;45.78
48244;BME280;34053;51.088;6.572;2022-07-06T04:19:12;101961.63;;;16.07;45.91
48244;BME280;34053;51.088;6.572;2022-07-06T04:21:43;101967.84;;;16.05;45.98
48244;BME280;34053;51.088;6.572;2022-07-06T04:24:14;101968.81;;;16.03;46.63
48244;BME280;34053;51.088;6.572;2022-07-06T04:26:44;101962.63;;;16.02;46.12
48244;BME280;34053;51.088;6.572;2022-07-06T04:29:18;101962.69;;;16.01;46.08
48244;BME280;34053;51.088;6.572;2022-07-06T04:31:48;101957.41;;;15.99;46.84
48244;BME280;34053;51.088;6.572;2022-07-06T04:34:19;101962.69;;;15.99;46.46
48244;BME280;34053;51.088;6.572;2022-07-06T04:36:49;101968.00;;;15.99;46.96
48244;BME280;34053;51.088;6.572;2022-07-06T04:39:19;101963.72;;;15.95;46.22
48244;BME280;34053;51.088;6.572;2022-07-06T04:41:50;101974.25;;;15.97;46.43
48244;BME280;34053;51.088;6.572;2022-07-06T04:44:21;101962.81;;;15.96;46.83
48244;BME280;34053;51.088;6.572;2022-07-06T04:46:51;101963.66;;;15.97;46.80
48244;BME280;34053;51.088;6.572;2022-07-06T04:49:22;101966.31;;;15.97;47.02
48244;BME280;34053;51.088;6.572;2022-07-06T04:51:53;101967.22;;;15.96;47.13
48244;BME280;34053;51.088;6.572;2022-07-06T04:54:23;101966.31;;;15.97;47.07
48244;BME280;34053;51.088;6.572;2022-07-06T04:56:54;101962.81;;;15.96;47.31
48244;BME280;34053;51.088;6.572;2022-07-06T04:59:24;101965.47;;;15.96;46.99
48244;BME280;34053;51.088;6.572;2022-07-06T05:01:55;101969.84;;;15.97;47.28
48244;BME280;34053;51.088;6.572;2022-07-06T05:04:25;101976.88;;;15.98;47.33
48244;BME280;34053;51.088;6.572;2022-07-06T05:06:56;101975.09;;;15.99;47.37
48244;BME280;34053;51.088;6.572;2022-07-06T05:09:27;101973.41;;;15.96;48.52
48244;BME280;34053;51.088;6.572;2022-07-06T05:11:57;101965.41;;;15.98;47.83
48244;BME280;34053;51.088;6.572;2022-07-06T05:14:28;101968.00;;;15.99;47.93
48244;BME280;34053;51.088;6.572;2022-07-06T05:16:58;101963.53;;;16.01;48.46
48244;BME280;34053;51.088;6.572;2022-07-06T05:19:28;101968.09;;;15.96;47.73
48244;BME280;34053;51.088;6.572;2022-07-06T05:21:59;101968.00;;;15.99;48.45
48244;BME280;34053;51.088;6.572;2022-07-06T05:24:29;101976.75;;;16.01;48.14
48244;BME280;34053;51.088;6.572;2022-07-06T05:27:00;101972.38;;;16.00;48.08
48244;BME280;34053;51.088;6.572;2022-07-06T05:29:30;101975.03;;;16.00;48.49
48244;BME280;34053;51.088;6.572;2022-07-06T05:32:01;101975.03;;;16.00;48.48
48244;BME280;34053;51.088;6.572;2022-07-06T05:34:32;101976.75;;;16.01;48.67
48244;BME280;34053;51.088;6.572;2022-07-06T05:37:02;101981.22;;;16.01;48.83
48244;BME280;34053;51.088;6.572;2022-07-06T05:39:33;101973.22;;;16.02;48.54
48244;BME280;34053;51.088;6.572;2022-07-06T05:42:04;101969.66;;;16.03;48.81
48244;BME280;34053;51.088;6.572;2022-07-06T05:44:36;101974.94;;;16.03;49.34
48244;BME280;34053;51.088;6.572;2022-07-06T05:47:07;101973.22;;;16.02;51.54
48244;BME280;34053;51.088;6.572;2022-07-06T05:49:58;101980.16;;;16.07;51.47
48244;BME280;34053;51.088;6.572;2022-07-06T05:52:55;101969.56;;;16.07;49.75
48244;BME280;34053;51.088;6.572;2022-07-06T05:55:26;101978.16;;;16.15;50.68
48244;BME280;34053;51.088;6.572;2022-07-06T05:57:57;101983.53;;;16.12;49.85
48244;BME280;34053;51.088;6.572;2022-07-06T06:00:28;101983.53;;;16.12;50.78
48244;BME280;34053;51.088;6.572;2022-07-06T06:02:59;101988.81;;;16.12;50.40
48244;BME280;34053;51.088;6.572;2022-07-06T06:05:29;101995.03;;;16.11;54.26
48244;BME280;34053;51.088;6.572;2022-07-06T06:08:00;101997.69;;;16.11;52.72
48244;BME280;34053;51.088;6.572;2022-07-06T06:10:34;101995.66;;;16.19;51.61
48244;BME280;34053;51.088;6.572;2022-07-06T06:13:04;102000.00;;;16.21;51.58
48244;BME280;34053;51.088;6.572;2022-07-06T06:15:38;102000.88;;;16.22;51.96
48244;BME280;34053;51.088;6.572;2022-07-06T06:18:08;101999.13;;;16.21;51.44
48244;BME280;34053;51.088;6.572;2022-07-06T06:20:39;102000.97;;;16.19;52.71
48244;BME280;34053;51.088;6.572;2022-07-06T06:23:11;101997.31;;;16.23;51.09
48244;BME280;34053;51.088;6.572;2022-07-06T06:25:42;101997.41;;;16.20;53.43
48244;BME280;34053;51.088;6.572;2022-07-06T06:28:12;102000.88;;;16.22;51.51
48244;BME280;34053;51.088;6.572;2022-07-06T06:30:43;102004.16;;;16.30;51.51
48244;BME280;34053;51.088;6.572;2022-07-06T06:33:16;102003.91;;;16.38;51.99
48244;BME280;34053;51.088;6.572;2022-07-06T06:35:51;102002.09;;;16.40;52.24
48244;BME280;34053;51.088;6.572;2022-07-06T06:38:22;101996.84;;;16.39;52.37
48244;BME280;34053;51.088;6.572;2022-07-06T06:40:56;102003.13;;;16.34;52.20
48244;BME280;34053;51.088;6.572;2022-07-06T06:43:27;101996.88;;;16.37;53.14
48244;BME280;34053;51.088;6.572;2022-07-06T06:46:01;102004.66;;;16.43;52.98
48244;BME280;34053;51.088;6.572;2022-07-06T06:48:31;102009.97;;;16.42;52.26
48244;BME280;34053;51.088;6.572;2022-07-06T06:51:03;102015.09;;;16.48;52.91
48244;BME280;34053;51.088;6.572;2022-07-06T06:53:39;102010.72;;;16.47;51.20
48244;BME280;34053;51.088;6.572;2022-07-06T06:56:10;102008.72;;;16.53;53.21
48244;BME280;34053;51.088;6.572;2022-07-06T06:58:40;102021.94;;;16.55;51.48
48244;BME280;34053;51.088;6.572;2022-07-06T07:01:14;102008.69;;;16.55;51.11
48244;BME280;34053;51.088;6.572;2022-07-06T07:03:47;102008.78;;;16.52;51.72
48244;BME280;34053;51.088;6.572;2022-07-06T07:06:17;102012.03;;;16.60;51.27
48244;BME280;34053;51.088;6.572;2022-07-06T07:08:49;102009.03;;;16.73;52.56
48244;BME280;34053;51.088;6.572;2022-07-06T07:11:22;102004.63;;;16.72;51.96
48244;BME280;34053;51.088;6.572;2022-07-06T07:13:53;102009.03;;;16.71;53.54
48244;BME280;34053;51.088;6.572;2022-07-06T07:16:23;102007.59;;;16.89;51.92
48244;BME280;34053;51.088;6.572;2022-07-06T07:18:56;102007.47;;;16.92;52.06
48244;BME280;34053;51.088;6.572;2022-07-06T07:21:27;102003.88;;;16.95;52.48
48244;BME280;34053;51.088;6.572;2022-07-06T07:23:57;102009.31;;;16.90;51.74
48244;BME280;34053;51.088;6.572;2022-07-06T07:26:28;102010.13;;;16.92;51.71
48244;BME280;34053;51.088;6.572;2022-07-06T07:28:59;102011.84;;;16.95;52.05
48244;BME280;34053;51.088;6.572;2022-07-06T07:31:29;102011.66;;;17.01;51.03
48244;BME280;34053;51.088;6.572;2022-07-06T07:34:00;102015.16;;;17.02;51.86
48244;BME280;34053;51.088;6.572;2022-07-06T07:36:31;102012.41;;;17.05;51.42
48244;BME280;34053;51.088;6.572;2022-07-06T07:39:03;102017.50;;;17.11;51.51
48244;BME280;34053;51.088;6.572;2022-07-06T07:41:33;102009.47;;;17.14;51.13
48244;BME280;34053;51.088;6.572;2022-07-06T07:44:04;102011.75;;;17.23;51.11
48244;BME280;34053;51.088;6.572;2022-07-06T07:46:35;102011.66;;;17.26;50.63
48244;BME280;34053;51.088;6.572;2022-07-06T07:49:10;102019.16;;;17.40;50.33
48244;BME280;34053;51.088;6.572;2022-07-06T07:51:41;102013.91;;;17.39;50.19
48244;BME280;34053;51.088;6.572;2022-07-06T07:54:12;102015.63;;;17.40;50.89
48244;BME280;34053;51.088;6.572;2022-07-06T07:56:45;102023.69;;;17.37;50.31
48244;BME280;34053;51.088;6.572;2022-07-06T07:59:16;102018.09;;;17.44;49.88
48244;BME280;34053;51.088;6.572;2022-07-06T08:01:46;102028.56;;;17.49;50.04
48244;BME280;34053;51.088;6.572;2022-07-06T08:04:17;102017.94;;;17.49;49.82
48244;BME280;34053;51.088;6.572;2022-07-06T08:06:48;102017.16;;;17.47;50.14
48244;BME280;34053;51.088;6.572;2022-07-06T08:09:19;102016.22;;;17.48;50.45
48244;BME280;34053;51.088;6.572;2022-07-06T08:11:49;102017.91;;;17.51;49.97
48244;BME280;34053;51.088;6.572;2022-07-06T08:14:20;102016.09;;;17.51;50.32
48244;BME280;34053;51.088;6.572;2022-07-06T08:16:51;102019.59;;;17.53;50.09
48244;BME280;34053;51.088;6.572;2022-07-06T08:19:22;102016.78;;;17.58;49.55
48244;BME280;34053;51.088;6.572;2022-07-06T08:21:52;102016.09;;;17.51;49.70
48244;BME280;34053;51.088;6.572;2022-07-06T08:24:23;102015.19;;;17.52;49.65
48244;BME280;34053;51.088;6.572;2022-07-06T08:26:53;102020.50;;;17.52;49.71
48244;BME280;34053;51.088;6.572;2022-07-06T08:29:24;102022.84;;;17.61;50.61
48244;BME280;34053;51.088;6.572;2022-07-06T08:31:54;102029.28;;;17.54;50.19
48244;BME280;34053;51.088;6.572;2022-07-06T08:34:25;102023.38;;;17.46;51.23
48244;BME280;34053;51.088;6.572;2022-07-06T08:36:56;102026.06;;;17.44;50.64
48244;BME280;34053;51.088;6.572;2022-07-06T08:39:26;102025.22;;;17.44;51.60
48244;BME280;34053;51.088;6.572;2022-07-06T08:41:58;102018.69;;;17.53;50.76
48244;BME280;34053;51.088;6.572;2022-07-06T08:44:30;102015.19;;;17.52;50.69
48244;BME280;34053;51.088;6.572;2022-07-06T08:47:04;102023.84;;;17.57;50.05
48244;BME280;34053;51.088;6.572;2022-07-06T08:49:36;102023.06;;;17.55;50.45
48244;BME280;34053;51.088;6.572;2022-07-06T08:52:07;102020.88;;;17.67;50.55
48244;BME280;34053;51.088;6.572;2022-07-06T08:54:38;102015.56;;;17.67;50.32
48244;BME280;34053;51.088;6.572;2022-07-06T08:57:09;102013.63;;;17.72;49.84
48244;BME280;34053;51.088;6.572;2022-07-06T08:59:39;102022.59;;;17.68;50.48
48244;BME280;34053;51.088;6.572;2022-07-06T09:02:13;102026.75;;;17.75;50.40
48244;BME280;34053;51.088;6.572;2022-07-06T09:04:46;102021.13;;;17.84;50.15
48244;BME280;34053;51.088;6.572;2022-07-06T09:07:18;102021.06;;;17.86;49.26
48244;BME280;34053;51.088;6.572;2022-07-06T09:09:49;102015.56;;;17.90;49.56
48244;BME280;34053;51.088;6.572;2022-07-06T09:12:21;102021.50;;;17.99;49.43
48244;BME280;34053;51.088;6.572;2022-07-06T09:14:56;102016.81;;;18.05;49.07
48244;BME280;34053;51.088;6.572;2022-07-06T09:17:28;102011.06;;;18.18;48.93
48244;BME280;34053;51.088;6.572;2022-07-06T09:19:59;102008.41;;;18.18;48.59
48244;BME280;34053;51.088;6.572;2022-07-06T09:22:31;102008.44;;;18.16;48.68
48244;BME280;34053;51.088;6.572;2022-07-06T09:25:13;102010.06;;;18.20;48.77
48244;BME280;34053;51.088;6.572;2022-07-06T09:27:46;102008.75;;;18.08;48.68
48244;BME280;34053;51.088;6.572;2022-07-06T09:30:26;102001.34;;;18.17;48.65
48244;BME280;34053;51.088;6.572;2022-07-06T09:32:58;102003.59;;;18.28;48.50
48244;BME280;34053;51.088;6.572;2022-07-06T09:35:35;102000.69;;;18.34;48.27
48244;BME280;34053;51.088;6.572;2022-07-06T09:38:11;102007.22;;;18.47;47.87
48244;BME280;34053;51.088;6.572;2022-07-06T09:40:44;101999.31;;;18.46;47.97
48244;BME280;34053;51.088;6.572;2022-07-06T09:43:19;102000.94;;;18.50;48.02
48244;BME280;34053;51.088;6.572;2022-07-06T09:45:55;102007.84;;;18.54;47.90
48244;BME280;34053;51.088;6.572;2022-07-06T09:48:27;102005.91;;;18.59;47.15
48244;BME280;34053;51.088;6.572;2022-07-06T09:50:59;101993.91;;;18.71;47.03
48244;BME280;34053;51.088;6.572;2022-07-06T09:53:37;101992.16;;;18.70;47.22
48244;BME280;34053;51.088;6.572;2022-07-06T09:56:08;101996.22;;;18.79;46.94
48244;BME280;34053;51.088;6.572;2022-07-06T09:58:38;101990.06;;;18.78;47.25
48244;BME280;34053;51.088;6.572;2022-07-06T10:01:12;102003.00;;;18.86;46.73
48244;BME280;34053;51.088;6.572;2022-07-06T10:03:55;102001.66;;;18.98;46.30
48244;BME280;34053;51.088;6.572;2022-07-06T10:06:26;102005.00;;;19.03;45.76
48244;BME280;34053;51.088;6.572;2022-07-06T10:08:58;102004.63;;;19.12;45.43
48244;BME280;34053;51.088;6.572;2022-07-06T10:11:33;102008.06;;;19.14;45.59
48244;BME280;34053;51.088;6.572;2022-07-06T10:14:06;102006.19;;;19.16;45.25
48244;BME280;34053;51.088;6.572;2022-07-06T10:16:45;102000.22;;;19.11;44.89
48244;BME280;34053;51.088;6.572;2022-07-06T10:19:18;101999.16;;;19.15;45.06
48244;BME280;34053;51.088;6.572;2022-07-06T10:21:49;101991.44;;;19.30;44.87
48244;BME280;34053;51.088;6.572;2022-07-06T10:24:21;101989.72;;;19.29;44.24
48244;BME280;34053;51.088;6.572;2022-07-06T10:26:55;101984.25;;;19.32;44.40
48244;BME280;34053;51.088;6.572;2022-07-06T10:29:26;101981.91;;;19.45;44.08
48244;BME280;34053;51.088;6.572;2022-07-06T10:31:56;101986.78;;;19.35;43.70
48244;BME280;34053;51.088;6.572;2022-07-06T10:34:27;101985.69;;;19.39;43.76
48244;BME280;34053;51.088;6.572;2022-07-06T10:36:58;101985.97;;;19.33;42.29
48244;BME280;34053;51.088;6.572;2022-07-06T10:39:38;101988.38;;;19.39;43.46
48244;BME280;34053;51.088;6.572;2022-07-06T10:48:16;101994.13;;;19.70;41.86
48244;BME280;34053;51.088;6.572;2022-07-06T10:50:51;101988.66;;;19.73;42.42
48244;BME280;34053;51.088;6.572;2022-07-06T10:53:24;101986.03;;;19.71;42.27
48244;BME280;34053;51.088;6.572;2022-07-06T10:55:56;101985.78;;;19.77;42.24
48244;BME280;34053;51.088;6.572;2022-07-06T10:58:51;101977.00;;;19.75;41.96
48244;BME280;34053;51.088;6.572;2022-07-06T11:01:27;101978.06;;;19.71;41.79
48244;BME280;34053;51.088;6.572;2022-07-06T11:06:32;101982.44;;;19.93;42.47
48244;BME280;34053;51.088;6.572;2022-07-06T11:09:09;101977.72;;;19.79;41.64
48244;BME280;34053;51.088;6.572;2022-07-06T11:11:46;101971.94;;;19.90;41.59
48244;BME280;34053;51.088;6.572;2022-07-06T11:14:21;101973.25;;;19.79;41.37
48244;BME280;34053;51.088;6.572;2022-07-06T11:19:23;101974.44;;;20.12;41.91
48244;BME280;34053;51.088;6.572;2022-07-06T11:22:05;101983.97;;;20.18;41.24
48244;BME280;34053;51.088;6.572;2022-07-06T11:24:46;101979.13;;;20.26;41.83
48244;BME280;34053;51.088;6.572;2022-07-06T11:27:22;101974.28;;;20.34;41.58
48244;BME280;34053;51.088;6.572;2022-07-06T11:29:54;101978.03;;;20.30;41.31
48244;BME280;34053;51.088;6.572;2022-07-06T11:32:26;101971.44;;;20.37;41.55
48244;BME280;34053;51.088;6.572;2022-07-06T11:34:59;101971.44;;;20.20;40.69
48244;BME280;34053;51.088;6.572;2022-07-06T11:37:30;101973.56;;;20.31;41.35
48244;BME280;34053;51.088;6.572;2022-07-06T11:40:06;101973.19;;;20.38;41.51
48244;BME280;34053;51.088;6.572;2022-07-06T11:42:37;101970.94;;;20.48;41.23
48244;BME280;34053;51.088;6.572;2022-07-06T11:45:09;101972.28;;;20.57;41.11
48244;BME280;34053;51.088;6.572;2022-07-06T11:47:39;101969.53;;;20.58;40.68
48244;BME280;34053;51.088;6.572;2022-07-06T11:50:19;101970.41;;;20.59;41.06
48244;BME280;34053;51.088;6.572;2022-07-06T11:52:50;101973.06;;;20.59;40.78
48244;BME280;34053;51.088;6.572;2022-07-06T11:55:22;101972.44;;;20.71;40.87
48244;BME280;34053;51.088;6.572;2022-07-06T11:57:53;101973.44;;;20.88;40.97
48244;BME280;34053;51.088;6.572;2022-07-06T12:00:27;101970.00;;;20.86;40.42
48244;BME280;34053;51.088;6.572;2022-07-06T12:03:00;101977.38;;;20.98;39.71
48244;BME280;34053;51.088;6.572;2022-07-06T12:05:31;101969.91;;;21.05;40.18
48244;BME280;34053;51.088;6.572;2022-07-06T12:08:09;101970.78;;;21.05;39.99
48244;BME280;34053;51.088;6.572;2022-07-06T12:10:40;101972.34;;;21.10;40.65
48244;BME280;34053;51.088;6.572;2022-07-06T12:13:11;101959.63;;;21.15;40.90
48244;BME280;34053;51.088;6.572;2022-07-06T12:15:44;101957.88;;;21.14;40.31
48244;BME280;34053;51.088;6.572;2022-07-06T12:18:17;101954.91;;;21.20;40.52
48244;BME280;34053;51.088;6.572;2022-07-06T12:20:47;101950.31;;;21.39;40.27
48244;BME280;34053;51.088;6.572;2022-07-06T12:23:18;101947.81;;;21.36;39.90
48244;BME280;34053;51.088;6.572;2022-07-06T12:25:56;101951.09;;;21.42;40.36
48244;BME280;34053;51.088;6.572;2022-07-06T12:28:26;101946.47;;;21.45;40.10
48244;BME280;34053;51.088;6.572;2022-07-06T12:31:02;101942.31;;;21.39;38.43
48244;BME280;34053;51.088;6.572;2022-07-06T12:33:33;101937.47;;;21.30;38.62
48244;BME280;34053;51.088;6.572;2022-07-06T12:36:12;101928.03;;;21.41;38.85
48244;BME280;34053;51.088;6.572;2022-07-06T12:38:45;101933.34;;;21.41;38.25
48244;BME280;34053;51.088;6.572;2022-07-06T12:44:09;101921.22;;;21.68;38.16
48244;BME280;34053;51.088;6.572;2022-07-06T12:46:44;101922.06;;;21.69;37.88
48244;BME280;34053;51.088;6.572;2022-07-06T12:54:48;101911.03;;;21.75;37.93
48244;BME280;34053;51.088;6.572;2022-07-06T12:57:27;101915.28;;;21.79;38.08
48244;BME280;34053;51.088;6.572;2022-07-06T12:59:58;101911.06;;;21.91;38.39
48244;BME280;34053;51.088;6.572;2022-07-06T13:02:34;101912.09;;;21.89;36.69
48244;BME280;34053;51.088;6.572;2022-07-06T13:05:09;101910.84;;;21.94;37.59
48244;BME280;34053;51.088;6.572;2022-07-06T13:07:45;101908.81;;;21.99;37.66
48244;BME280;34053;51.088;6.572;2022-07-06T13:10:16;101912.00;;;22.06;38.06
48244;BME280;34053;51.088;6.572;2022-07-06T13:12:47;101906.19;;;22.14;37.93
48244;BME280;34053;51.088;6.572;2022-07-06T13:15:17;101903.94;;;22.22;37.90
48244;BME280;34053;51.088;6.572;2022-07-06T13:17:48;101896.72;;;22.24;36.55
48244;BME280;34053;51.088;6.572;2022-07-06T13:20:18;101898.59;;;22.22;36.68
48244;BME280;34053;51.088;6.572;2022-07-06T13:22:49;101903.69;;;22.27;36.48
48244;BME280;34053;51.088;6.572;2022-07-06T13:25:23;101909.44;;;22.35;36.10
48244;BME280;34053;51.088;6.572;2022-07-06T13:27:57;101897.72;;;22.38;36.82
48244;BME280;34053;51.088;6.572;2022-07-06T13:30:27;101899.09;;;22.45;37.39
48244;BME280;34053;51.088;6.572;2022-07-06T13:33:01;101893.22;;;22.54;36.45
48244;BME280;34053;51.088;6.572;2022-07-06T13:35:31;101898.19;;;22.60;36.11
48244;BME280;34053;51.088;6.572;2022-07-06T13:38:04;101885.16;;;22.70;35.31